createdAt,value
2018-09-17T00:01:42.390Z,86.90
2018-09-17T00:04:45.477Z,87.50
2018-09-17T00:07:48.531Z,87.60
2018-09-17T00:10:51.562Z,87.70
2018-09-17T00:13:54.606Z,87.10
2018-09-17T00:16:57.634Z,87.40
2018-09-17T00:20:00.698Z,87.60
2018-09-17T00:23:03.767Z,87.70
2018-09-17T00:26:06.839Z,87.50
2018-09-17T00:29:09.916Z,88.00
2018-09-17T00:32:12.954Z,88.20
2018-09-17T00:35:16.002Z,88.30
2018-09-17T00:38:19.084Z,88.00
2018-09-17T00:41:22.134Z,87.70
2018-09-17T00:44:25.181Z,88.70
2018-09-17T00:47:33.946Z,88.80
2018-09-17T00:50:36.999Z,88.60
2018-09-17T00:53:40.098Z,89.10
2018-09-17T00:56:43.142Z,88.60
2018-09-17T00:59:46.211Z,88.60
2018-09-17T01:02:49.261Z,87.90
2018-09-17T01:05:52.327Z,88.70
2018-09-17T01:08:55.385Z,88.40
2018-09-17T01:11:58.431Z,88.20
2018-09-17T01:15:01.513Z,88.30
2018-09-17T01:18:04.564Z,88.10
2018-09-17T01:21:07.678Z,88.50
2018-09-17T01:24:10.728Z,88.70
2018-09-17T01:27:13.742Z,89.40
2018-09-17T01:30:16.889Z,88.80
2018-09-17T01:33:19.898Z,89.40
2018-09-17T01:36:22.958Z,89.60
2018-09-17T01:39:26.035Z,89.30
2018-09-17T01:42:29.039Z,89.00
2018-09-17T01:45:32.046Z,89.10
2018-09-17T01:48:35.046Z,89.30
2018-09-17T01:51:38.053Z,90.10
2018-09-17T01:54:41.071Z,89.50
2018-09-17T01:57:44.069Z,89.00
2018-09-17T02:00:47.182Z,89.50
2018-09-17T02:03:50.182Z,89.20
2018-09-17T02:06:53.208Z,89.50
2018-09-17T02:09:56.263Z,89.40
2018-09-17T02:12:59.256Z,89.90
2018-09-17T02:16:02.337Z,90.20
2018-09-17T02:19:05.433Z,90.40
2018-09-17T02:22:09.193Z,90.20
2018-09-17T02:25:12.198Z,90.30
2018-09-17T02:28:15.190Z,90.30
2018-09-17T02:31:18.283Z,90.40
2018-09-17T02:34:21.271Z,90.40
2018-09-17T02:37:24.282Z,90.50
2018-09-17T02:40:27.363Z,90.50
2018-09-17T02:43:30.417Z,90.30
2018-09-17T02:46:33.424Z,90.00
2018-09-17T02:49:36.422Z,90.50
2018-09-17T02:52:39.467Z,90.70
2018-09-17T02:55:42.498Z,90.40
2018-09-17T02:58:45.577Z,90.30
2018-09-17T03:01:48.574Z,90.50
2018-09-17T03:04:51.599Z,90.60
2018-09-17T03:07:54.678Z,90.80
2018-09-17T03:10:57.719Z,90.50
2018-09-17T03:14:00.698Z,90.40
2018-09-17T03:17:09.818Z,90.60
2018-09-17T03:20:12.854Z,90.60
2018-09-17T03:23:15.858Z,90.60
2018-09-17T03:26:19.362Z,90.40
2018-09-17T03:29:22.350Z,90.90
2018-09-17T03:32:25.350Z,90.90
2018-09-17T03:35:28.347Z,90.60
2018-09-17T03:38:43.758Z,91.10
2018-09-17T03:41:46.797Z,90.90
2018-09-17T03:44:49.829Z,90.60
2018-09-17T03:47:52.906Z,91.00
2018-09-17T03:50:55.923Z,91.20
2018-09-17T03:53:58.953Z,91.00
2018-09-17T03:57:01.994Z,90.90
2018-09-17T04:00:05.098Z,90.80
2018-09-17T04:03:08.370Z,91.00
2018-09-17T04:06:11.399Z,90.90
2018-09-17T04:09:14.444Z,91.00
2018-09-17T04:12:17.470Z,91.30
2018-09-17T04:15:20.490Z,91.30
2018-09-17T04:18:23.526Z,91.10
2018-09-17T04:21:26.551Z,91.10
2018-09-17T04:24:29.586Z,91.30
2018-09-17T04:27:32.634Z,91.10
2018-09-17T04:30:35.702Z,90.90
2018-09-17T04:33:41.021Z,91.00
2018-09-17T04:36:44.152Z,91.20
2018-09-17T04:39:47.225Z,91.10
2018-09-17T04:42:50.253Z,91.20
2018-09-17T04:45:53.243Z,91.60
2018-09-17T04:48:56.254Z,91.40
2018-09-17T04:51:59.243Z,91.00
2018-09-17T04:55:02.366Z,91.20
2018-09-17T04:58:05.409Z,91.30
2018-09-17T05:01:08.402Z,91.40
2018-09-17T05:04:11.406Z,91.30
2018-09-17T05:07:14.393Z,91.40
2018-09-17T05:10:17.422Z,91.70
2018-09-17T05:13:20.563Z,91.60
2018-09-17T05:16:23.498Z,91.30
2018-09-17T05:19:26.493Z,91.20
2018-09-17T05:22:29.478Z,91.20
2018-09-17T05:25:32.526Z,91.70
2018-09-17T05:28:35.538Z,91.30
2018-09-17T05:31:38.538Z,91.50
2018-09-17T05:34:41.555Z,91.40
2018-09-17T05:37:44.566Z,91.50
2018-09-17T05:40:47.605Z,91.50
2018-09-17T05:43:50.619Z,91.70
2018-09-17T05:46:53.602Z,92.30
2018-09-17T05:49:56.630Z,92.30
2018-09-17T05:52:59.614Z,92.30
2018-09-17T05:56:02.609Z,92.40
2018-09-17T05:59:05.882Z,92.30
2018-09-17T06:02:08.906Z,92.30
2018-09-17T06:05:11.982Z,92.20
2018-09-17T06:08:14.974Z,91.90
2018-09-17T06:11:18.047Z,91.60
2018-09-17T06:14:21.034Z,90.70
2018-09-17T06:17:24.036Z,88.90
2018-09-17T06:20:27.042Z,86.40
2018-09-17T06:23:30.078Z,84.30
2018-09-17T06:26:33.158Z,83.40
2018-09-17T06:29:36.119Z,82.20
2018-09-17T06:32:39.115Z,80.50
2018-09-17T06:35:42.126Z,77.50
2018-09-17T06:38:45.170Z,74.10
2018-09-17T06:41:48.211Z,68.10
2018-09-17T06:44:51.305Z,66.10
2018-09-17T06:47:54.314Z,60.30
2018-09-17T06:50:57.367Z,58.70
2018-09-17T06:54:00.399Z,55.90
2018-09-17T06:57:03.491Z,53.50
2018-09-17T07:00:06.605Z,50.40
2018-09-17T07:03:09.634Z,48.70
2018-09-17T07:06:12.684Z,48.20
2018-09-17T07:09:15.714Z,49.00
2018-09-17T07:12:18.753Z,48.40
2018-09-17T07:15:21.782Z,47.90
2018-09-17T07:18:24.785Z,48.60
2018-09-17T07:21:27.813Z,52.20
2018-09-17T07:24:30.828Z,55.90
2018-09-17T07:27:33.858Z,59.50
2018-09-17T07:30:36.909Z,63.10
2018-09-17T07:33:39.928Z,65.50
2018-09-17T07:36:42.980Z,68.90
2018-09-17T07:39:45.990Z,71.00
2018-09-17T07:42:49.028Z,72.20
2018-09-17T07:45:52.029Z,73.30
2018-09-17T07:48:55.019Z,74.40
2018-09-17T07:51:58.056Z,75.20
2018-09-17T07:55:01.034Z,74.90
2018-09-17T07:58:04.197Z,76.20
2018-09-17T08:01:07.309Z,77.00
2018-09-17T08:04:10.318Z,76.30
2018-09-17T08:07:13.330Z,77.00
2018-09-17T08:10:19.454Z,77.10
2018-09-17T08:13:22.454Z,75.00
2018-09-17T08:16:25.542Z,73.70
2018-09-17T08:19:28.526Z,74.10
2018-09-17T08:22:31.534Z,74.00
2018-09-17T08:25:34.568Z,71.50
2018-09-17T08:28:37.691Z,71.10
2018-09-17T08:31:40.698Z,71.00
2018-09-17T08:34:43.709Z,70.90
2018-09-17T08:37:46.727Z,69.60
2018-09-17T08:40:49.747Z,65.00
2018-09-17T08:43:52.740Z,65.90
2018-09-17T08:46:55.746Z,66.10
2018-09-17T08:49:58.746Z,64.00
2018-09-17T08:53:01.846Z,63.60
2018-09-17T08:56:10.770Z,64.20
2018-09-17T08:59:19.386Z,62.60
2018-09-17T09:02:28.188Z,60.50
2018-09-17T09:05:34.587Z,61.30
2018-09-17T09:08:37.586Z,59.10
2018-09-17T09:11:46.217Z,59.40
2018-09-17T09:14:53.780Z,56.40
2018-09-17T09:17:56.771Z,55.20
2018-09-17T09:20:59.767Z,54.80
2018-09-17T09:24:02.803Z,55.40
2018-09-17T09:27:05.832Z,52.40
2018-09-17T09:30:08.877Z,51.50
2018-09-17T09:33:11.902Z,51.10
2018-09-17T09:36:14.933Z,51.00
2018-09-17T09:39:17.957Z,53.80
2018-09-17T09:42:20.950Z,51.60
2018-09-17T09:45:23.982Z,51.40
2018-09-17T09:48:27.014Z,52.50
2018-09-17T09:51:30.014Z,49.60
2018-09-17T09:54:33.021Z,51.10
2018-09-17T09:57:36.013Z,49.40
2018-09-17T10:00:44.766Z,49.50
2018-09-17T10:03:52.442Z,49.90
2018-09-17T10:06:55.434Z,50.10
2018-09-17T10:10:04.011Z,48.80
2018-09-17T10:13:12.616Z,48.40
2018-09-17T10:16:17.058Z,46.70
2018-09-17T10:19:22.793Z,47.20
2018-09-17T10:22:25.777Z,46.20
2018-09-17T10:25:28.801Z,45.70
2018-09-17T10:28:31.790Z,47.90
2018-09-17T10:31:34.809Z,46.40
2018-09-17T10:34:37.823Z,47.30
2018-09-17T10:37:40.814Z,45.00
2018-09-17T10:40:43.854Z,45.80
2018-09-17T10:43:46.862Z,44.20
2018-09-17T10:46:49.910Z,44.20
2018-09-17T10:49:52.902Z,44.10
2018-09-17T10:52:55.912Z,42.90
2018-09-17T10:55:58.922Z,38.80
2018-09-17T10:59:01.918Z,39.30
2018-09-17T11:02:04.974Z,39.60
2018-09-17T11:05:07.998Z,39.80
2018-09-17T11:08:11.029Z,39.80
2018-09-17T11:11:14.031Z,39.20
2018-09-17T11:14:17.026Z,38.20
2018-09-17T11:17:20.111Z,40.90
2018-09-17T11:20:23.070Z,39.40
2018-09-17T11:23:26.081Z,38.70
2018-09-17T11:26:29.090Z,39.70
2018-09-17T11:29:32.091Z,38.30
2018-09-17T11:32:35.095Z,39.60
2018-09-17T11:35:38.138Z,39.70
2018-09-17T11:38:41.181Z,38.90
2018-09-17T11:41:44.231Z,39.80
2018-09-17T11:44:47.253Z,39.50
2018-09-17T11:47:50.282Z,38.70
2018-09-17T11:50:53.350Z,38.50
2018-09-17T11:53:56.422Z,39.10
2018-09-17T11:56:59.439Z,38.00
2018-09-17T12:00:02.537Z,39.00
2018-09-17T12:04:09.786Z,39.10
2018-09-17T12:07:18.498Z,38.20
2018-09-17T12:10:21.512Z,36.30
2018-09-17T12:13:24.570Z,38.40
2018-09-17T12:16:27.615Z,37.60
2018-09-17T12:19:30.688Z,37.90
2018-09-17T12:22:33.721Z,37.60
2018-09-17T12:25:36.789Z,37.10
2018-09-17T12:28:39.845Z,36.90
2018-09-17T12:31:42.915Z,38.40
2018-09-17T12:34:45.974Z,36.30
2018-09-17T12:37:49.063Z,37.80
2018-09-17T12:40:52.113Z,38.60
2018-09-17T12:43:55.217Z,36.30
2018-09-17T12:46:58.245Z,37.40
2018-09-17T12:50:01.257Z,38.20
2018-09-17T12:53:04.302Z,37.30
2018-09-17T12:56:07.328Z,38.20
2018-09-17T12:59:10.366Z,38.60
2018-09-17T13:02:13.502Z,38.40
2018-09-17T13:05:16.545Z,39.20
2018-09-17T13:08:19.614Z,36.90
2018-09-17T13:11:22.687Z,36.70
2018-09-17T13:14:25.714Z,36.50
2018-09-17T13:17:28.761Z,37.10
2018-09-17T13:20:31.761Z,35.10
2018-09-17T13:23:34.803Z,36.20
2018-09-17T13:26:38.242Z,38.00
2018-09-17T13:29:41.266Z,37.40
2018-09-17T13:32:44.288Z,37.90
2018-09-17T13:35:47.319Z,38.90
2018-09-17T13:38:50.362Z,37.90
2018-09-17T13:41:53.385Z,35.60
2018-09-17T13:44:56.445Z,35.90
2018-09-17T13:47:59.564Z,36.50
2018-09-17T13:51:02.573Z,35.60
2018-09-17T13:54:05.597Z,37.00
2018-09-17T13:57:08.637Z,35.60
2018-09-17T14:00:11.709Z,37.50
2018-09-17T14:03:14.785Z,35.20
2018-09-17T14:06:17.795Z,34.90
2018-09-17T14:09:20.829Z,33.20
2018-09-17T14:12:23.862Z,34.00
2018-09-17T14:15:26.927Z,33.80
2018-09-17T14:18:30.413Z,35.00
2018-09-17T14:21:33.434Z,33.10
2018-09-17T14:24:36.485Z,33.20
2018-09-17T14:27:39.659Z,32.70
2018-09-17T14:30:42.664Z,32.50
2018-09-17T14:33:45.992Z,32.00
2018-09-17T14:36:49.019Z,33.20
2018-09-17T14:39:52.078Z,34.60
2018-09-17T14:42:55.087Z,34.50
2018-09-17T14:45:58.124Z,33.20
2018-09-17T14:49:01.154Z,34.10
2018-09-17T14:52:04.221Z,34.30
2018-09-17T14:55:07.193Z,35.10
2018-09-17T14:58:10.894Z,34.60
2018-09-17T15:01:13.934Z,35.40
2018-09-17T15:04:16.998Z,35.40
2018-09-17T15:07:19.960Z,36.40
2018-09-17T15:10:23.020Z,36.50
2018-09-17T15:13:26.014Z,36.00
2018-09-17T15:16:29.084Z,36.00
2018-09-17T15:19:32.046Z,36.00
2018-09-17T15:22:35.069Z,34.90
2018-09-17T15:25:38.066Z,36.10
2018-09-17T15:28:41.161Z,35.50
2018-09-17T15:31:44.158Z,36.50
2018-09-17T15:34:47.204Z,36.40
2018-09-17T15:37:50.730Z,35.80
2018-09-17T15:40:53.917Z,37.80
2018-09-17T15:43:57.157Z,38.20
2018-09-17T15:47:00.252Z,39.20
2018-09-17T15:50:03.287Z,38.70
2018-09-17T15:53:06.311Z,39.30
2018-09-17T15:56:09.330Z,40.40
2018-09-17T15:59:12.339Z,39.80
2018-09-17T16:02:15.432Z,39.40
2018-09-17T16:05:18.454Z,38.60
2018-09-17T16:08:21.449Z,39.40
2018-09-17T16:11:24.533Z,39.90
2018-09-17T16:14:27.573Z,37.90
2018-09-17T16:17:30.594Z,37.50
2018-09-17T16:20:33.680Z,39.10
2018-09-17T16:23:36.610Z,41.00
2018-09-17T16:26:39.622Z,41.50
2018-09-17T16:29:42.705Z,41.60
2018-09-17T16:32:45.690Z,43.30
2018-09-17T16:35:48.745Z,42.30
2018-09-17T16:38:51.790Z,45.40
2018-09-17T16:41:54.837Z,45.00
2018-09-17T16:44:57.859Z,46.10
2018-09-17T16:48:00.910Z,46.50
2018-09-17T16:51:04.178Z,47.30
2018-09-17T16:54:07.947Z,47.40
2018-09-17T16:57:11.111Z,48.60
2018-09-17T17:00:14.210Z,48.20
2018-09-17T17:03:17.286Z,48.60
2018-09-17T17:06:20.331Z,49.10
2018-09-17T17:09:23.353Z,50.30
2018-09-17T17:12:26.402Z,50.20
2018-09-17T17:15:29.458Z,50.70
2018-09-17T17:18:32.517Z,51.10
2018-09-17T17:21:37.819Z,51.00
2018-09-17T17:24:42.331Z,51.70
2018-09-17T17:27:45.547Z,52.90
2018-09-17T17:30:48.784Z,52.70
2018-09-17T17:33:52.517Z,52.70
2018-09-17T17:37:00.606Z,53.50
2018-09-17T17:40:04.876Z,53.50
2018-09-17T17:43:08.112Z,53.40
2018-09-17T17:46:11.425Z,54.80
2018-09-17T17:49:14.415Z,54.20
2018-09-17T17:52:17.708Z,55.00
2018-09-17T17:55:20.764Z,55.40
2018-09-17T17:58:23.963Z,56.70
2018-09-17T18:01:27.529Z,57.50
2018-09-17T18:04:30.522Z,56.70
2018-09-17T18:07:34.126Z,56.40
2018-09-17T18:10:37.285Z,57.90
2018-09-17T18:13:40.419Z,57.80
2018-09-17T18:16:43.494Z,57.90
2018-09-17T18:19:46.587Z,59.30
2018-09-17T18:22:49.631Z,59.80
2018-09-17T18:25:52.840Z,59.90
2018-09-17T18:28:56.151Z,59.20
2018-09-17T18:32:00.647Z,61.90
2018-09-17T18:35:04.811Z,61.20
2018-09-17T18:38:08.591Z,60.40
2018-09-17T18:41:14.019Z,60.30
2018-09-17T18:58:07.688Z,61.60
2018-09-17T19:01:12.671Z,62.60
2018-09-17T19:04:17.170Z,62.80
2018-09-17T19:07:22.657Z,63.60
2018-09-17T19:10:29.906Z,64.50
2018-09-17T19:13:35.473Z,63.80
2018-09-17T19:16:55.612Z,63.20
2018-09-17T19:20:00.048Z,62.60
2018-09-17T19:23:09.596Z,63.50
2018-09-17T19:26:14.558Z,64.80
2018-09-17T19:29:21.237Z,64.90
2018-09-17T19:32:25.666Z,65.80
2018-09-17T19:35:31.247Z,65.50
2018-09-17T19:38:40.782Z,67.20
2018-09-17T19:41:45.357Z,67.00
2018-09-17T19:44:54.880Z,67.00
2018-09-17T19:47:59.576Z,66.20
2018-09-17T19:51:19.919Z,67.10
2018-09-17T19:57:44.536Z,67.80
2018-09-17T20:00:49.848Z,68.30
2018-09-17T20:03:55.147Z,68.40
2018-09-17T20:07:02.467Z,69.50
2018-09-17T20:10:09.141Z,68.80
2018-09-17T20:13:14.043Z,69.10
2018-09-17T20:16:19.176Z,69.40
2018-09-17T20:19:24.318Z,70.70
2018-09-17T20:22:29.287Z,70.30
2018-09-17T20:25:33.802Z,70.60
2018-09-17T20:28:39.361Z,70.80
2018-09-17T20:31:50.284Z,71.80
2018-09-17T20:34:56.048Z,71.30
2018-09-17T20:38:10.308Z,71.90
2018-09-17T20:41:14.818Z,71.60
2018-09-17T20:44:19.250Z,71.30
2018-09-17T20:47:23.803Z,72.00
2018-09-17T20:53:45.411Z,72.40
2018-09-17T20:56:55.222Z,72.90
2018-09-17T21:00:00.772Z,73.40
2018-09-17T21:03:05.238Z,73.60
2018-09-17T21:06:09.681Z,73.50
2018-09-17T21:09:14.108Z,73.50
2018-09-17T21:12:19.780Z,74.40
2018-09-17T21:15:24.514Z,75.10
2018-09-17T21:18:33.228Z,74.70
2018-09-17T21:21:37.797Z,73.90
2018-09-17T21:24:44.762Z,74.10
2018-09-17T21:27:49.305Z,75.20
2018-09-17T21:30:53.867Z,75.70
2018-09-17T21:33:58.305Z,76.00
2018-09-17T21:37:02.790Z,76.70
2018-09-17T21:40:07.335Z,76.20
2018-09-17T21:43:11.874Z,76.10
2018-09-17T21:46:16.374Z,76.50
2018-09-17T21:49:21.491Z,77.20
2018-09-17T21:52:25.935Z,77.00
2018-09-17T21:55:30.434Z,77.90
2018-09-17T21:58:34.927Z,78.30
2018-09-17T22:01:39.318Z,78.10
2018-09-17T22:04:43.840Z,79.00
2018-09-17T22:07:48.330Z,79.20
2018-09-17T22:10:52.889Z,79.10
2018-09-17T22:13:57.378Z,79.70
2018-09-17T22:17:01.928Z,79.50
2018-09-17T22:20:06.416Z,79.80
2018-09-17T22:23:11.045Z,79.70
2018-09-17T22:26:15.482Z,79.60
2018-09-17T22:29:19.904Z,80.30
2018-09-17T22:32:24.367Z,80.70
2018-09-17T22:35:28.895Z,80.90
2018-09-17T22:38:33.398Z,80.20
2018-09-17T22:41:38.103Z,80.40
2018-09-17T22:44:42.530Z,81.60
2018-09-17T22:47:46.990Z,81.90
2018-09-17T22:50:51.442Z,81.60
2018-09-17T22:53:55.889Z,81.90
2018-09-17T22:57:00.342Z,82.00
2018-09-17T23:00:05.109Z,81.80
2018-09-17T23:03:09.577Z,81.60
2018-09-17T23:06:14.014Z,81.80
2018-09-17T23:09:18.467Z,82.00
2018-09-17T23:12:22.981Z,82.10
2018-09-17T23:15:27.421Z,81.80
2018-09-17T23:18:31.911Z,81.60
2018-09-17T23:21:36.358Z,82.30
2018-09-17T23:24:40.880Z,82.60
2018-09-17T23:27:45.392Z,82.50
2018-09-17T23:30:49.911Z,83.40
2018-09-17T23:33:54.380Z,82.60
2018-09-17T23:36:58.881Z,83.00
2018-09-17T23:40:03.377Z,83.20
2018-09-17T23:43:07.905Z,82.80
2018-09-17T23:46:12.355Z,83.50
2018-09-17T23:49:16.807Z,83.80
2018-09-17T23:52:21.305Z,83.80
2018-09-17T23:55:26.035Z,83.40
2018-09-17T23:58:30.472Z,84.00
